createdAt,value
2022-11-08T00:00:36.917Z,30.12
2022-11-08T00:01:40.521Z,30.03
2022-11-08T00:02:42.373Z,30.66
2022-11-08T00:03:44.231Z,30.35
2022-11-08T00:04:45.926Z,30.62
2022-11-08T00:06:06.142Z,30.68
2022-11-08T00:07:26.430Z,30.35
2022-11-08T00:08:46.449Z,30.64
2022-11-08T00:10:06.706Z,30.35
2022-11-08T00:11:26.993Z,30.41
2022-11-08T00:12:47.267Z,30.45
2022-11-08T00:13:58.580Z,30.60
2022-11-08T00:15:00.537Z,30.54
2022-11-08T00:16:02.282Z,30.61
2022-11-08T00:17:04.035Z,30.08
2022-11-08T00:18:07.482Z,30.73
2022-11-08T00:19:09.216Z,30.32
2022-11-08T00:20:11.515Z,30.46
2022-11-08T00:21:13.286Z,30.75
2022-11-08T00:22:15.834Z,30.16
2022-11-08T00:23:17.509Z,30.23
2022-11-08T00:24:19.207Z,30.80
2022-11-08T00:25:20.949Z,30.92
2022-11-08T00:26:22.665Z,30.89
2022-11-08T00:27:25.386Z,30.30
2022-11-08T00:28:27.075Z,30.19
2022-11-08T00:29:28.821Z,30.03
2022-11-08T00:30:30.782Z,30.18
2022-11-08T00:31:32.504Z,30.53
2022-11-08T00:32:34.242Z,30.05
2022-11-08T00:33:36.010Z,30.67
2022-11-08T00:34:37.750Z,30.54
2022-11-08T00:35:39.467Z,30.91
2022-11-08T00:36:41.234Z,30.66
2022-11-08T00:37:42.963Z,30.41
2022-11-08T00:38:44.680Z,30.82
2022-11-08T00:39:46.481Z,30.78
2022-11-08T00:40:48.172Z,30.83
2022-11-08T00:41:49.946Z,30.87
2022-11-08T00:42:51.687Z,30.17
2022-11-08T00:43:53.401Z,30.23
2022-11-08T00:44:55.107Z,30.73
2022-11-08T00:45:56.855Z,30.60
2022-11-08T00:46:58.556Z,30.73
2022-11-08T00:48:00.299Z,30.61
2022-11-08T00:49:02.157Z,30.65
2022-11-08T00:50:04.168Z,30.63
2022-11-08T00:51:08.025Z,30.40
2022-11-08T00:52:09.818Z,30.14
2022-11-08T00:53:11.562Z,30.08
2022-11-08T00:54:16.246Z,30.44
2022-11-08T00:55:17.994Z,30.05
2022-11-08T00:56:19.857Z,30.36
2022-11-08T00:57:31.019Z,30.18
2022-11-08T00:58:43.987Z,30.06
2022-11-08T00:59:45.812Z,30.01
2022-11-08T01:00:47.516Z,30.57
2022-11-08T01:01:49.399Z,30.61
2022-11-08T01:03:13.985Z,30.62
2022-11-08T01:04:17.753Z,30.91
2022-11-08T01:05:19.514Z,30.32
2022-11-08T01:06:23.278Z,30.13
2022-11-08T01:07:24.997Z,30.56
2022-11-08T01:08:26.677Z,30.29
2022-11-08T01:09:28.433Z,30.16
2022-11-08T01:10:30.222Z,30.38
2022-11-08T01:11:32.993Z,30.11
2022-11-08T01:12:34.883Z,30.32
2022-11-08T01:13:36.718Z,30.45
2022-11-08T01:14:38.449Z,30.92
2022-11-08T01:15:43.354Z,30.90
2022-11-08T01:16:45.364Z,30.21
2022-11-08T01:17:47.046Z,30.92
2022-11-08T01:18:50.634Z,30.17
2022-11-08T01:19:52.369Z,30.63
2022-11-08T01:20:54.070Z,30.82
2022-11-08T01:21:55.782Z,30.95
2022-11-08T01:22:57.615Z,30.27
2022-11-08T01:23:59.904Z,30.35
2022-11-08T01:25:01.629Z,30.65
2022-11-08T01:26:13.004Z,30.83
2022-11-08T01:27:14.732Z,30.43
2022-11-08T01:28:17.521Z,30.12
2022-11-08T01:29:19.492Z,30.54
2022-11-08T01:30:21.269Z,30.60
2022-11-08T01:31:32.466Z,30.84
2022-11-08T01:32:34.166Z,31.04
2022-11-08T01:33:37.229Z,30.18
2022-11-08T01:34:39.019Z,30.23
2022-11-08T01:35:43.610Z,30.21
2022-11-08T01:36:45.297Z,30.29
2022-11-08T01:37:47.114Z,30.53
2022-11-08T01:38:49.489Z,30.91
2022-11-08T01:39:51.162Z,30.68
2022-11-08T01:40:53.404Z,30.46
2022-11-08T01:41:55.130Z,30.14
2022-11-08T01:42:57.090Z,30.47
2022-11-08T01:43:59.838Z,30.25
2022-11-08T01:45:09.705Z,30.84
2022-11-08T01:46:20.284Z,31.02
2022-11-08T01:47:21.974Z,30.56
2022-11-08T01:48:26.134Z,30.20
2022-11-08T01:49:27.788Z,30.20
2022-11-08T01:50:29.701Z,30.72
2022-11-08T01:51:44.908Z,30.67
2022-11-08T01:52:54.098Z,30.75
2022-11-08T01:53:57.684Z,31.05
2022-11-08T01:55:09.951Z,30.27
2022-11-08T01:56:13.891Z,30.22
2022-11-08T01:57:23.529Z,30.96
2022-11-08T01:58:29.796Z,30.97
2022-11-08T01:59:34.024Z,30.99
2022-11-08T02:00:37.445Z,30.40
2022-11-08T02:01:39.541Z,30.78
2022-11-08T02:02:44.452Z,30.91
2022-11-08T02:03:47.332Z,30.16
2022-11-08T02:04:49.209Z,30.83
2022-11-08T02:05:50.934Z,30.92
2022-11-08T02:06:52.918Z,30.73
2022-11-08T02:08:06.935Z,30.15
2022-11-08T02:09:11.589Z,30.37
2022-11-08T02:10:13.400Z,30.21
2022-11-08T02:11:17.779Z,30.49
2022-11-08T02:12:22.857Z,30.89
2022-11-08T02:13:27.287Z,30.52
2022-11-08T02:14:29.065Z,30.76
2022-11-08T02:15:31.028Z,30.26
2022-11-08T02:16:32.793Z,30.29
2022-11-08T02:17:34.473Z,30.20
2022-11-08T02:18:36.486Z,30.93
2022-11-08T02:19:45.495Z,30.10
2022-11-08T02:21:06.358Z,30.06
2022-11-08T02:22:38.440Z,30.20
2022-11-08T02:23:54.916Z,29.89
2022-11-08T02:24:58.481Z,29.81
2022-11-08T02:26:00.297Z,30.60
2022-11-08T02:27:02.367Z,30.42
2022-11-08T02:28:04.376Z,30.70
2022-11-08T02:29:31.050Z,30.17
2022-11-08T02:30:34.358Z,29.79
2022-11-08T02:31:36.053Z,29.91
2022-11-08T02:32:39.833Z,30.58
2022-11-08T02:33:42.550Z,30.10
2022-11-08T02:34:48.020Z,30.76
2022-11-08T02:35:52.584Z,30.11
2022-11-08T02:36:55.887Z,30.69
2022-11-08T02:37:57.575Z,30.27
2022-11-08T02:38:59.265Z,30.69
2022-11-08T02:40:00.989Z,30.37
2022-11-08T02:41:03.399Z,30.01
2022-11-08T02:42:05.297Z,30.17
2022-11-08T02:43:06.969Z,29.94
2022-11-08T02:44:08.785Z,30.28
2022-11-08T02:45:10.927Z,30.56
2022-11-08T02:46:12.774Z,30.01
2022-11-08T02:47:15.329Z,30.63
2022-11-08T02:48:19.314Z,30.35
2022-11-08T02:49:21.317Z,30.10
2022-11-08T02:50:23.197Z,30.74
2022-11-08T02:51:24.928Z,30.65
2022-11-08T02:52:26.717Z,30.16
2022-11-08T02:53:28.650Z,30.60
2022-11-08T02:54:30.458Z,29.93
2022-11-08T02:55:34.118Z,30.38
2022-11-08T02:56:35.960Z,30.63
2022-11-08T02:57:37.627Z,30.07
2022-11-08T02:58:39.296Z,30.67
2022-11-08T02:59:41.062Z,30.62
2022-11-08T03:00:42.741Z,30.46
2022-11-08T03:01:45.229Z,30.11
2022-11-08T03:02:51.362Z,30.12
2022-11-08T03:03:53.367Z,30.63
2022-11-08T03:04:55.065Z,30.37
2022-11-08T03:05:57.521Z,30.48
2022-11-08T03:06:59.241Z,30.11
2022-11-08T03:08:00.961Z,29.97
2022-11-08T03:09:02.793Z,30.07
2022-11-08T03:10:04.902Z,30.54
2022-11-08T03:11:06.831Z,30.26
2022-11-08T03:12:08.547Z,30.19
2022-11-08T03:13:10.280Z,29.79
2022-11-08T03:14:11.970Z,30.07
2022-11-08T03:15:14.555Z,30.47
2022-11-08T03:16:16.273Z,30.42
2022-11-08T03:17:18.022Z,29.83
2022-11-08T03:18:20.172Z,30.34
2022-11-08T03:19:22.139Z,30.36
2022-11-08T03:20:28.275Z,30.34
2022-11-08T03:21:36.130Z,30.33
2022-11-08T03:22:37.829Z,29.97
2022-11-08T03:23:39.603Z,30.41
2022-11-08T03:24:41.325Z,30.60
2022-11-08T03:25:43.066Z,29.74
2022-11-08T03:26:44.737Z,29.79
2022-11-08T03:27:46.400Z,30.35
2022-11-08T03:28:48.183Z,29.98
2022-11-08T03:29:50.119Z,29.97
2022-11-08T03:30:53.209Z,30.65
2022-11-08T03:31:54.970Z,30.58
2022-11-08T03:32:56.893Z,30.36
2022-11-08T03:33:58.567Z,30.60
2022-11-08T03:35:01.049Z,30.05
2022-11-08T03:36:03.004Z,30.28
2022-11-08T03:37:06.189Z,30.60
2022-11-08T03:38:07.950Z,30.25
2022-11-08T03:39:11.560Z,29.97
2022-11-08T03:40:13.433Z,29.85
2022-11-08T03:41:15.190Z,30.28
2022-11-08T03:42:17.078Z,30.32
2022-11-08T03:43:18.772Z,30.64
2022-11-08T03:44:20.697Z,30.43
2022-11-08T03:45:22.374Z,30.46
2022-11-08T03:46:24.104Z,30.43
2022-11-08T03:47:25.864Z,30.07
2022-11-08T03:48:27.542Z,30.54
2022-11-08T03:49:29.217Z,30.22
2022-11-08T03:50:31.113Z,30.50
2022-11-08T03:51:32.869Z,30.16
2022-11-08T03:52:41.528Z,30.58
2022-11-08T03:53:43.297Z,29.93
2022-11-08T03:54:44.998Z,30.42
2022-11-08T03:55:46.757Z,30.40
2022-11-08T03:56:48.494Z,30.30
2022-11-08T03:57:50.983Z,30.04
2022-11-08T03:58:52.666Z,30.22
2022-11-08T03:59:54.424Z,30.68
2022-11-08T04:00:58.291Z,30.03
2022-11-08T04:02:00.257Z,30.07
2022-11-08T04:03:04.339Z,30.49
2022-11-08T04:04:07.365Z,30.63
2022-11-08T04:05:10.963Z,30.65
2022-11-08T04:06:12.731Z,30.07
2022-11-08T04:07:14.437Z,30.00
2022-11-08T04:08:16.455Z,30.09
2022-11-08T04:09:21.496Z,30.07
2022-11-08T04:10:23.590Z,29.76
2022-11-08T04:11:43.932Z,30.21
2022-11-08T04:13:04.179Z,30.26
2022-11-08T04:14:24.131Z,30.18
2022-11-08T04:15:27.667Z,30.05
2022-11-08T04:16:31.806Z,30.18
2022-11-08T04:17:52.189Z,29.73
2022-11-08T04:19:12.365Z,29.84
2022-11-08T04:20:32.541Z,30.47
2022-11-08T04:21:34.233Z,29.75
2022-11-08T04:22:35.945Z,30.23
2022-11-08T04:23:38.332Z,29.71
2022-11-08T04:24:40.063Z,30.51
2022-11-08T04:25:42.525Z,30.40
2022-11-08T04:26:44.586Z,29.93
2022-11-08T04:27:46.328Z,29.86
2022-11-08T04:28:48.051Z,29.81
2022-11-08T04:29:49.742Z,29.96
2022-11-08T04:30:53.281Z,30.43
2022-11-08T04:31:55.011Z,30.45
2022-11-08T04:32:56.820Z,30.32
2022-11-08T04:33:58.561Z,29.95
2022-11-08T04:35:00.292Z,29.73
2022-11-08T04:36:04.101Z,30.42
2022-11-08T04:37:05.849Z,30.38
2022-11-08T04:38:07.615Z,29.79
2022-11-08T04:39:09.700Z,29.86
2022-11-08T04:40:12.246Z,30.21
2022-11-08T04:41:15.961Z,29.79
2022-11-08T04:42:17.673Z,30.40
2022-11-08T04:43:19.325Z,30.27
2022-11-08T04:44:21.079Z,29.81
2022-11-08T04:45:22.879Z,30.34
2022-11-08T04:46:27.868Z,30.10
2022-11-08T04:47:32.378Z,29.96
2022-11-08T04:48:38.272Z,29.80
2022-11-08T04:49:39.953Z,30.39
2022-11-08T04:50:42.807Z,29.81
2022-11-08T04:51:44.567Z,30.24
2022-11-08T04:52:52.821Z,30.27
2022-11-08T04:54:00.036Z,30.31
2022-11-08T04:55:01.786Z,30.18
2022-11-08T04:56:06.304Z,30.11
2022-11-08T04:57:07.988Z,30.30
2022-11-08T04:58:10.240Z,30.01
2022-11-08T04:59:12.487Z,29.61
2022-11-08T05:00:15.451Z,30.24
2022-11-08T05:01:19.888Z,29.97
2022-11-08T05:02:21.755Z,30.23
2022-11-08T05:03:23.565Z,29.81
2022-11-08T05:04:25.282Z,30.32
2022-11-08T05:05:27.050Z,29.78
2022-11-08T05:06:31.283Z,29.67
2022-11-08T05:07:32.986Z,30.20
2022-11-08T05:08:34.701Z,30.17
2022-11-08T05:09:36.438Z,29.62
2022-11-08T05:10:38.213Z,29.78
2022-11-08T05:11:40.018Z,30.14
2022-11-08T05:12:41.752Z,30.33
2022-11-08T05:13:43.843Z,30.08
2022-11-08T05:14:45.509Z,30.34
2022-11-08T05:15:47.238Z,30.26
2022-11-08T05:16:49.149Z,29.82
2022-11-08T05:17:50.841Z,30.38
2022-11-08T05:18:52.540Z,29.81
2022-11-08T05:20:12.818Z,29.55
2022-11-08T05:21:35.691Z,30.19
2022-11-08T05:22:55.763Z,29.87
2022-11-08T05:23:58.778Z,30.28
2022-11-08T05:25:00.539Z,29.78
2022-11-08T05:26:02.563Z,30.11
2022-11-08T05:27:04.256Z,29.55
2022-11-08T05:28:05.947Z,29.98
2022-11-08T05:29:08.086Z,30.31
2022-11-08T05:30:10.166Z,30.00
2022-11-08T05:31:12.484Z,29.76
2022-11-08T05:32:14.733Z,30.13
2022-11-08T05:33:16.470Z,30.26
2022-11-08T05:34:18.149Z,30.29
2022-11-08T05:35:21.827Z,29.54
2022-11-08T05:36:23.581Z,30.13
2022-11-08T05:37:25.326Z,30.13
2022-11-08T05:38:27.166Z,29.65
2022-11-08T05:39:32.036Z,30.10
2022-11-08T05:40:34.356Z,30.10
2022-11-08T05:41:36.161Z,29.70
2022-11-08T05:42:37.875Z,29.67
2022-11-08T05:43:40.204Z,29.56
2022-11-08T05:44:42.042Z,29.65
2022-11-08T05:45:45.653Z,30.28
2022-11-08T05:46:47.451Z,30.04
2022-11-08T05:47:49.729Z,29.86
2022-11-08T05:48:51.766Z,30.11
2022-11-08T05:49:53.584Z,29.91
2022-11-08T05:50:55.445Z,30.19
2022-11-08T05:51:57.202Z,29.76
2022-11-08T05:52:59.480Z,29.43
2022-11-08T05:54:01.183Z,29.55
2022-11-08T05:55:03.077Z,30.25
2022-11-08T05:56:05.240Z,30.13
2022-11-08T05:57:06.934Z,29.48
2022-11-08T05:58:08.737Z,29.84
2022-11-08T05:59:10.470Z,29.57
2022-11-08T06:00:12.945Z,29.78
2022-11-08T06:01:19.977Z,29.50
2022-11-08T06:02:21.929Z,29.79
2022-11-08T06:03:24.205Z,30.27
2022-11-08T06:04:26.188Z,29.67
2022-11-08T06:05:27.849Z,29.71
2022-11-08T06:06:29.683Z,30.16
2022-11-08T06:07:31.548Z,30.23
2022-11-08T06:08:33.413Z,30.05
2022-11-08T06:09:35.224Z,29.71
2022-11-08T06:10:36.902Z,30.04
2022-11-08T06:11:38.731Z,30.10
2022-11-08T06:12:40.512Z,29.72
2022-11-08T06:13:43.235Z,29.69
2022-11-08T06:14:45.099Z,29.62
2022-11-08T06:15:46.850Z,29.78
2022-11-08T06:16:48.761Z,29.67
2022-11-08T06:17:50.482Z,29.74
2022-11-08T06:18:52.230Z,29.69
2022-11-08T06:19:53.939Z,29.28
2022-11-08T06:20:55.778Z,29.70
2022-11-08T06:21:57.540Z,29.12
2022-11-08T06:22:59.229Z,29.29
2022-11-08T06:24:00.894Z,29.46
2022-11-08T06:25:02.722Z,29.27
2022-11-08T06:26:04.864Z,29.37
2022-11-08T06:27:06.849Z,29.44
2022-11-08T06:28:08.561Z,28.73
2022-11-08T06:29:10.571Z,28.87
2022-11-08T06:30:12.816Z,28.62
2022-11-08T06:31:14.566Z,29.21
2022-11-08T06:32:16.371Z,29.07
2022-11-08T06:33:19.457Z,28.93
2022-11-08T06:34:21.611Z,28.64
2022-11-08T06:35:23.413Z,28.66
2022-11-08T06:36:25.101Z,28.74
2022-11-08T06:37:26.957Z,28.73
2022-11-08T06:38:28.695Z,28.65
2022-11-08T06:39:30.691Z,28.70
2022-11-08T06:40:33.299Z,28.08
2022-11-08T06:41:35.233Z,28.03
2022-11-08T06:42:36.917Z,27.95
2022-11-08T06:43:38.646Z,28.12
2022-11-08T06:44:40.412Z,27.82
2022-11-08T06:45:42.314Z,28.54
2022-11-08T06:46:44.033Z,27.73
2022-11-08T06:47:45.958Z,28.06
2022-11-08T06:48:47.765Z,27.89
2022-11-08T06:49:49.459Z,28.20
2022-11-08T06:50:51.150Z,28.19
2022-11-08T06:51:52.941Z,27.70
2022-11-08T06:52:58.374Z,27.90
2022-11-08T06:54:00.329Z,28.10
2022-11-08T06:55:02.018Z,27.92
2022-11-08T06:56:04.057Z,27.36
2022-11-08T06:57:05.736Z,27.50
2022-11-08T06:58:07.478Z,27.71
2022-11-08T06:59:09.967Z,27.14
2022-11-08T07:00:12.454Z,27.53
2022-11-08T07:01:15.428Z,27.46
2022-11-08T07:02:17.295Z,27.49
2022-11-08T07:03:19.450Z,27.28
2022-11-08T07:04:21.520Z,27.62
2022-11-08T07:05:23.835Z,27.50
2022-11-08T07:06:25.787Z,27.40
2022-11-08T07:07:27.538Z,26.83
2022-11-08T07:08:29.777Z,27.18
2022-11-08T07:09:31.632Z,26.87
2022-11-08T07:10:33.708Z,26.91
2022-11-08T07:11:35.514Z,27.02
2022-11-08T07:12:37.289Z,27.19
2022-11-08T07:13:39.036Z,26.67
2022-11-08T07:14:40.742Z,27.50
2022-11-08T07:15:42.874Z,27.30
2022-11-08T07:16:44.646Z,26.57
2022-11-08T07:17:46.313Z,26.92
2022-11-08T07:18:48.092Z,26.99
2022-11-08T07:19:49.864Z,26.94
2022-11-08T07:20:52.446Z,27.33
2022-11-08T07:21:54.113Z,26.85
2022-11-08T07:22:57.143Z,27.28
2022-11-08T07:23:58.869Z,26.76
2022-11-08T07:25:00.647Z,26.84
2022-11-08T07:26:04.340Z,26.76
2022-11-08T07:27:06.027Z,27.32
2022-11-08T07:28:13.302Z,26.93
2022-11-08T07:29:16.289Z,26.89
2022-11-08T07:30:18.357Z,27.02
2022-11-08T07:31:20.089Z,27.00
2022-11-08T07:32:21.995Z,26.61
2022-11-08T07:33:23.762Z,27.15
2022-11-08T07:34:25.570Z,26.90
2022-11-08T07:35:28.108Z,26.52
2022-11-08T07:36:29.823Z,26.89
2022-11-08T07:37:32.874Z,27.15
2022-11-08T07:38:34.589Z,26.98
2022-11-08T07:39:36.269Z,26.75
2022-11-08T07:40:38.025Z,27.20
2022-11-08T07:41:39.765Z,27.04
2022-11-08T07:43:09.623Z,26.44
2022-11-08T07:44:04.412Z,27.03
2022-11-08T07:45:07.826Z,26.74
2022-11-08T07:46:09.578Z,26.76
2022-11-08T07:47:11.349Z,26.88
2022-11-08T07:48:14.037Z,26.44
2022-11-08T07:49:15.765Z,26.72
2022-11-08T07:50:18.080Z,26.66
2022-11-08T07:51:19.926Z,26.84
2022-11-08T07:52:21.642Z,26.47
2022-11-08T07:53:23.556Z,26.75
2022-11-08T07:54:25.402Z,26.83
2022-11-08T07:55:27.683Z,27.13
2022-11-08T07:56:29.398Z,26.85
2022-11-08T07:57:31.100Z,26.91
2022-11-08T07:58:32.869Z,26.77
2022-11-08T07:59:34.555Z,27.16
2022-11-08T08:00:37.753Z,27.13
2022-11-08T08:01:39.564Z,27.28
2022-11-08T08:02:41.466Z,26.76
2022-11-08T08:03:43.230Z,27.20
2022-11-08T08:04:44.914Z,26.45
2022-11-08T08:05:58.022Z,26.70
2022-11-08T08:07:01.424Z,26.62
2022-11-08T08:08:04.021Z,26.84
2022-11-08T08:09:05.826Z,26.26
2022-11-08T08:10:08.005Z,26.55
2022-11-08T08:11:09.875Z,26.37
2022-11-08T08:12:11.708Z,26.83
2022-11-08T08:13:13.435Z,26.78
2022-11-08T08:14:15.201Z,26.49
2022-11-08T08:15:17.009Z,26.92
2022-11-08T08:16:18.795Z,27.13
2022-11-08T08:17:20.539Z,26.58
2022-11-08T08:18:22.234Z,26.44
2022-11-08T08:19:24.030Z,26.63
2022-11-08T08:20:25.707Z,26.69
2022-11-08T08:21:27.390Z,26.33
2022-11-08T08:22:29.603Z,26.67
2022-11-08T08:23:31.371Z,26.24
2022-11-08T08:24:33.090Z,26.34
2022-11-08T08:25:34.896Z,26.42
2022-11-08T08:26:36.660Z,26.27
2022-11-08T08:27:38.367Z,26.64
2022-11-08T08:28:40.061Z,26.44
2022-11-08T08:29:41.806Z,27.07
2022-11-08T08:30:43.514Z,26.24
2022-11-08T08:31:45.238Z,26.19
2022-11-08T08:32:57.617Z,27.05
2022-11-08T08:34:04.449Z,27.06
2022-11-08T08:35:06.310Z,26.54
2022-11-08T08:36:08.108Z,27.08
2022-11-08T08:37:10.253Z,26.97
2022-11-08T08:38:13.569Z,26.31
2022-11-08T08:39:15.285Z,26.31
2022-11-08T08:40:17.092Z,26.74
2022-11-08T08:41:19.124Z,26.67
2022-11-08T08:42:21.222Z,26.96
2022-11-08T08:43:23.500Z,26.54
2022-11-08T08:44:25.263Z,26.52
2022-11-08T08:45:27.874Z,26.84
2022-11-08T08:46:29.555Z,26.28
2022-11-08T08:47:31.309Z,26.41
2022-11-08T08:48:33.760Z,26.69
2022-11-08T08:49:35.806Z,26.51
2022-11-08T08:50:37.598Z,26.76
2022-11-08T08:51:39.319Z,26.24
2022-11-08T08:52:40.993Z,26.91
2022-11-08T08:53:42.660Z,27.06
2022-11-08T08:54:44.413Z,26.91
2022-11-08T08:55:48.064Z,26.63
2022-11-08T08:56:49.737Z,26.27
2022-11-08T08:57:51.481Z,26.98
2022-11-08T09:01:38.392Z,26.34
2022-11-08T09:02:42.520Z,26.65
2022-11-08T09:03:44.596Z,26.52
2022-11-08T09:04:46.334Z,27.04
2022-11-08T09:05:48.080Z,26.64
2022-11-08T09:06:49.820Z,26.74
2022-11-08T09:07:54.919Z,26.83
2022-11-08T09:08:56.692Z,26.34
2022-11-08T09:09:58.386Z,26.27
2022-11-08T09:11:01.225Z,26.70
2022-11-08T09:12:03.670Z,26.62
2022-11-08T09:13:05.697Z,26.91
2022-11-08T09:14:07.506Z,26.98
2022-11-08T09:15:09.957Z,27.05
2022-11-08T09:16:13.745Z,27.11
2022-11-08T09:17:15.658Z,26.85
2022-11-08T09:18:17.783Z,26.86
2022-11-08T09:19:19.741Z,26.50
2022-11-08T09:20:22.366Z,26.91
2022-11-08T09:21:24.184Z,26.27
2022-11-08T09:22:25.963Z,26.72
2022-11-08T09:23:27.706Z,27.05
2022-11-08T09:24:29.602Z,26.39
2022-11-08T09:25:31.576Z,26.75
2022-11-08T09:26:33.433Z,26.93
2022-11-08T09:27:35.191Z,27.18
2022-11-08T09:28:37.400Z,26.55
2022-11-08T09:29:39.289Z,27.07
2022-11-08T09:30:40.978Z,27.20
2022-11-08T09:31:42.758Z,26.85
2022-11-08T09:33:00.388Z,27.24
2022-11-08T09:35:05.540Z,26.68
2022-11-08T09:36:11.099Z,26.69
2022-11-08T09:37:13.149Z,26.64
2022-11-08T09:38:14.963Z,26.79
2022-11-08T09:39:17.122Z,26.31
2022-11-08T09:40:40.434Z,27.17
2022-11-08T09:41:44.889Z,26.29
2022-11-08T09:42:56.148Z,26.57
2022-11-08T09:44:40.093Z,26.54
2022-11-08T09:45:47.122Z,26.18
2022-11-08T09:47:03.213Z,26.36
2022-11-08T09:48:07.645Z,26.83
2022-11-08T09:49:17.804Z,26.55
2022-11-08T09:50:28.398Z,26.79
2022-11-08T09:51:31.773Z,26.58
2022-11-08T09:52:35.390Z,27.15
2022-11-08T09:53:52.192Z,26.78
2022-11-08T09:55:05.730Z,26.80
2022-11-08T09:56:21.489Z,26.38
2022-11-08T09:57:49.549Z,26.40
2022-11-08T09:59:01.910Z,26.61
2022-11-08T10:00:07.177Z,26.66
2022-11-08T10:01:11.924Z,27.03
2022-11-08T10:02:20.069Z,26.63
2022-11-08T10:03:24.677Z,26.89
2022-11-08T10:04:31.050Z,26.98
2022-11-08T10:05:41.552Z,26.38
2022-11-08T10:07:03.571Z,26.46
2022-11-08T10:08:20.885Z,26.63
2022-11-08T10:09:37.790Z,26.56
2022-11-08T10:11:03.876Z,26.15
2022-11-08T10:12:50.353Z,26.60
2022-11-08T10:14:04.799Z,26.21
2022-11-08T10:15:29.813Z,26.94
2022-11-08T10:17:16.495Z,27.04
2022-11-08T10:18:44.005Z,26.35
2022-11-08T10:20:35.392Z,26.09
2022-11-08T10:21:59.644Z,26.83
2022-11-08T10:23:22.117Z,26.17
2022-11-08T10:24:37.469Z,26.92
2022-11-08T10:25:45.684Z,26.64
2022-11-08T10:26:50.808Z,26.19
2022-11-08T10:27:59.198Z,26.58
2022-11-08T10:29:08.806Z,26.69
2022-11-08T10:30:22.457Z,26.48
2022-11-08T10:31:24.139Z,26.91
2022-11-08T10:32:26.158Z,26.61
2022-11-08T10:33:29.074Z,26.87
2022-11-08T10:34:41.433Z,26.27
2022-11-08T10:35:48.400Z,26.74
2022-11-08T10:36:57.978Z,26.81
2022-11-08T10:38:01.061Z,26.72
2022-11-08T10:39:11.797Z,26.24
2022-11-08T10:41:00.157Z,26.97
2022-11-08T10:42:17.129Z,26.13
2022-11-08T10:43:31.685Z,26.93
2022-11-08T10:44:35.153Z,26.52
2022-11-08T10:45:36.983Z,26.37
2022-11-08T10:46:45.620Z,26.89
2022-11-08T10:47:47.585Z,26.32
2022-11-08T10:48:49.386Z,26.97
2022-11-08T10:49:52.354Z,26.32
2022-11-08T10:50:55.781Z,26.98
2022-11-08T10:51:59.822Z,26.77
2022-11-08T10:53:04.360Z,26.48
2022-11-08T10:55:36.819Z,26.87
2022-11-08T10:56:55.979Z,26.87
2022-11-08T10:57:57.856Z,26.43
2022-11-08T10:58:59.568Z,26.53
2022-11-08T11:00:23.396Z,26.94
2022-11-08T11:01:26.670Z,26.56
2022-11-08T11:02:34.361Z,26.98
2022-11-08T11:03:36.171Z,26.10
2022-11-08T11:05:55.072Z,26.41
2022-11-08T11:07:23.762Z,26.62
2022-11-08T11:08:25.711Z,26.16
2022-11-08T11:09:28.046Z,26.50
2022-11-08T11:10:35.779Z,27.00
2022-11-08T11:11:39.062Z,26.70
2022-11-08T11:12:40.841Z,26.37
2022-11-08T11:13:42.739Z,26.26
2022-11-08T11:14:44.550Z,26.54
2022-11-08T11:15:47.923Z,26.90
2022-11-08T11:17:07.550Z,26.31
2022-11-08T11:18:46.873Z,26.22
2022-11-08T11:19:56.705Z,26.97
2022-11-08T11:21:09.414Z,26.27
2022-11-08T11:22:13.238Z,26.83
2022-11-08T11:23:14.990Z,26.75
2022-11-08T11:24:20.852Z,26.90
2022-11-08T11:25:24.103Z,26.27
2022-11-08T11:26:34.721Z,26.86
2022-11-08T11:27:38.256Z,26.68
2022-11-08T11:29:06.068Z,26.97
2022-11-08T11:30:25.814Z,26.37
2022-11-08T11:31:27.497Z,26.47
2022-11-08T11:32:35.972Z,26.71
2022-11-08T11:33:46.291Z,26.47
2022-11-08T11:34:57.347Z,26.43
2022-11-08T11:36:13.479Z,26.87
2022-11-08T11:37:43.045Z,26.95
2022-11-08T11:39:14.379Z,26.48
2022-11-08T11:40:25.244Z,27.00
2022-11-08T11:41:43.134Z,26.27
2022-11-08T11:42:58.112Z,27.05
2022-11-08T11:44:14.382Z,26.75
2022-11-08T11:45:23.990Z,26.99
2022-11-08T11:46:43.605Z,26.70
2022-11-08T11:47:47.966Z,27.02
2022-11-08T11:48:58.490Z,27.03
2022-11-08T11:50:10.853Z,26.71
2022-11-08T11:51:13.805Z,26.57
2022-11-08T11:52:18.662Z,26.54
2022-11-08T11:53:38.829Z,26.80
2022-11-08T11:54:41.998Z,26.38
2022-11-08T11:56:21.794Z,26.08
2022-11-08T11:57:26.357Z,26.91
2022-11-08T11:58:54.005Z,26.14
2022-11-08T12:00:09.669Z,26.50
2022-11-08T12:01:42.190Z,26.71
2022-11-08T12:02:55.872Z,26.60
2022-11-08T12:04:00.623Z,26.14
2022-11-08T12:05:14.399Z,26.19
2022-11-08T12:06:30.972Z,26.92
2022-11-08T12:07:36.857Z,26.84
2022-11-08T12:09:18.070Z,26.69
2022-11-08T12:10:38.461Z,26.16
2022-11-08T12:11:59.448Z,26.94
2022-11-08T12:13:12.014Z,26.84
2022-11-08T12:14:26.471Z,26.58
2022-11-08T12:15:35.722Z,26.92
2022-11-08T12:16:46.505Z,26.43
2022-11-08T12:18:06.094Z,26.87
2022-11-08T12:19:29.507Z,26.52
2022-11-08T12:20:54.828Z,26.61
2022-11-08T12:22:09.355Z,26.24
2022-11-08T12:23:32.743Z,26.14
2022-11-08T12:24:45.502Z,26.17
2022-11-08T12:25:59.146Z,26.85
2022-11-08T12:27:23.848Z,26.90
2022-11-08T12:28:25.520Z,26.23
2022-11-08T12:29:41.466Z,26.84
2022-11-08T12:31:35.661Z,26.09
2022-11-08T12:32:55.889Z,26.33
2022-11-08T12:34:14.425Z,26.61
2022-11-08T12:36:02.198Z,25.94
2022-11-08T12:37:21.166Z,26.26
2022-11-08T12:38:47.237Z,26.64
2022-11-08T12:40:04.028Z,26.22
2022-11-08T12:41:14.638Z,26.77
2022-11-08T12:42:34.840Z,26.65
2022-11-08T12:43:58.218Z,26.28
2022-11-08T12:45:21.427Z,26.56
2022-11-08T12:46:23.148Z,25.94
2022-11-08T12:47:48.929Z,25.99
2022-11-08T12:48:59.462Z,26.01
2022-11-08T12:50:28.752Z,26.58
2022-11-08T12:51:33.408Z,25.84
2022-11-08T12:52:46.426Z,25.91
2022-11-08T12:54:03.078Z,26.06
2022-11-08T12:55:20.942Z,25.87
2022-11-08T12:56:27.813Z,26.08
2022-11-08T12:57:31.322Z,26.41
2022-11-08T12:58:39.261Z,26.47
2022-11-08T12:59:45.183Z,26.69
2022-11-08T13:00:48.540Z,26.59
2022-11-08T13:01:52.340Z,26.44
2022-11-08T13:03:12.418Z,26.17
2022-11-08T13:04:40.200Z,26.64
2022-11-08T13:05:59.375Z,26.14
2022-11-08T13:07:14.607Z,26.61
2022-11-08T13:08:35.289Z,25.88
2022-11-08T13:09:40.420Z,26.61
2022-11-08T13:10:57.207Z,25.96
2022-11-08T13:12:04.125Z,25.92
2022-11-08T13:13:17.833Z,26.41
2022-11-08T13:14:21.732Z,25.92
2022-11-08T13:15:25.311Z,26.30
2022-11-08T13:16:34.373Z,26.17
2022-11-08T13:17:36.117Z,25.91
2022-11-08T13:18:46.779Z,26.66
2022-11-08T13:19:51.275Z,26.27
2022-11-08T13:20:53.186Z,26.55
2022-11-08T13:21:55.115Z,26.66
2022-11-08T13:22:58.955Z,26.40
2022-11-08T13:25:28.566Z,26.41
2022-11-08T13:26:34.757Z,25.90
2022-11-08T13:27:44.417Z,26.73
2022-11-08T13:28:46.717Z,26.35
2022-11-08T13:29:48.557Z,26.38
2022-11-08T13:31:02.462Z,26.53
2022-11-08T13:32:11.766Z,25.97
2022-11-08T13:33:26.853Z,26.22
2022-11-08T13:34:59.290Z,26.51
2022-11-08T13:36:27.190Z,26.53
2022-11-08T13:37:54.540Z,26.50
2022-11-08T13:39:22.470Z,26.13
2022-11-08T13:40:50.927Z,25.92
2022-11-08T13:42:13.737Z,26.25
2022-11-08T13:43:29.675Z,26.29
2022-11-08T13:44:56.449Z,26.39
2022-11-08T13:46:19.980Z,26.40
2022-11-08T13:47:34.002Z,25.81
2022-11-08T13:48:40.248Z,26.01
2022-11-08T13:49:42.072Z,26.09
2022-11-08T13:51:23.153Z,25.99
2022-11-08T13:53:01.580Z,25.89
2022-11-08T13:54:34.099Z,26.09
2022-11-08T13:55:41.716Z,26.32
2022-11-08T13:56:47.909Z,25.70
2022-11-08T13:57:59.307Z,26.49
2022-11-08T13:59:01.118Z,26.30
2022-11-08T14:00:02.933Z,26.15
2022-11-08T14:01:23.083Z,25.97
2022-11-08T14:02:24.988Z,26.10
2022-11-08T14:03:32.804Z,26.09
2022-11-08T14:04:40.952Z,26.00
2022-11-08T14:05:48.058Z,25.99
2022-11-08T14:07:01.428Z,25.89
2022-11-08T14:08:24.598Z,25.93
2022-11-08T14:09:40.682Z,25.98
2022-11-08T14:11:10.088Z,25.70
2022-11-08T14:12:32.501Z,26.00
2022-11-08T14:13:50.212Z,26.38
2022-11-08T14:15:07.616Z,26.05
2022-11-08T14:16:17.187Z,25.86
2022-11-08T14:17:45.175Z,25.89
2022-11-08T14:18:47.168Z,26.39
2022-11-08T14:19:51.126Z,26.19
2022-11-08T14:20:54.930Z,26.12
2022-11-08T14:21:58.943Z,26.35
2022-11-08T14:23:20.615Z,26.24